createdAt,value
2023-03-21T00:01:29.459Z,101142.53
2023-03-21T00:03:34.248Z,101135.88
2023-03-21T00:05:42.244Z,101132.34
2023-03-21T00:07:44.536Z,101127.25
2023-03-21T00:09:46.656Z,101129.63
2023-03-21T00:11:49.025Z,101126.88
2023-03-21T00:13:51.177Z,101109.19
2023-03-21T00:16:13.837Z,101116.06
2023-03-21T00:18:17.908Z,101111.28
2023-03-21T00:20:20.941Z,101102.91
2023-03-21T00:22:23.021Z,101105.59
2023-03-21T00:24:25.713Z,101105.56
2023-03-21T00:26:27.981Z,101104.75
2023-03-21T00:28:30.237Z,101104.13
2023-03-21T00:30:32.494Z,101099.81
2023-03-21T00:32:39.741Z,101099.53
2023-03-21T00:35:00.209Z,101101.50
2023-03-21T00:37:07.653Z,101092.78
2023-03-21T00:39:10.052Z,101096.31
2023-03-21T00:41:25.857Z,101097.97
2023-03-21T00:43:34.110Z,101092.88
2023-03-21T00:45:37.792Z,101086.19
2023-03-21T00:47:40.327Z,101092.16
2023-03-21T00:49:42.525Z,101079.16
2023-03-21T00:51:44.982Z,101083.53
2023-03-21T00:53:47.736Z,101078.66
2023-03-21T00:55:50.383Z,101074.31
2023-03-21T00:58:01.206Z,101074.28
2023-03-21T01:00:07.633Z,101062.75
2023-03-21T01:02:15.169Z,101069.63
2023-03-21T01:04:18.388Z,101058.75
2023-03-21T01:06:20.632Z,101060.44
2023-03-21T01:08:29.375Z,101065.53
2023-03-21T01:10:33.399Z,101052.38
2023-03-21T01:12:35.818Z,101051.00
2023-03-21T01:14:38.015Z,101044.22
2023-03-21T01:16:40.298Z,101051.59
2023-03-21T01:18:43.065Z,101037.25
2023-03-21T01:20:47.640Z,101038.06
2023-03-21T01:22:49.829Z,101026.31
2023-03-21T01:24:58.605Z,101027.34
2023-03-21T01:27:03.680Z,101024.03
2023-03-21T01:29:06.127Z,101020.63
2023-03-21T01:31:08.806Z,101021.53
2023-03-21T01:33:10.947Z,101019.06
2023-03-21T01:35:13.141Z,101027.59
2023-03-21T01:37:15.116Z,101020.63
2023-03-21T01:39:17.077Z,101020.56
2023-03-21T01:41:33.599Z,101011.16
2023-03-21T01:43:42.408Z,101014.69
2023-03-21T01:45:51.975Z,101015.63
2023-03-21T01:47:54.169Z,101010.25
2023-03-21T01:50:01.704Z,101009.59
2023-03-21T01:52:13.096Z,101009.72
2023-03-21T01:54:27.188Z,101009.16
2023-03-21T01:56:33.482Z,101009.13
2023-03-21T01:58:37.096Z,101004.13
2023-03-21T02:00:39.148Z,101003.28
2023-03-21T02:02:52.186Z,100996.03
2023-03-21T02:04:58.420Z,100996.84
2023-03-21T02:07:08.082Z,100991.88
2023-03-21T02:09:15.426Z,100990.19
2023-03-21T02:11:19.194Z,100979.16
2023-03-21T02:13:21.774Z,100979.69
2023-03-21T02:15:26.828Z,100971.38
2023-03-21T02:17:35.172Z,100959.59
2023-03-21T02:19:52.681Z,100962.31
2023-03-21T02:22:05.406Z,100955.97
2023-03-21T02:24:09.546Z,100960.13
2023-03-21T02:26:18.046Z,100958.47
2023-03-21T02:28:28.604Z,100949.19
2023-03-21T02:30:45.556Z,100945.59
2023-03-21T02:32:54.313Z,100946.69
2023-03-21T02:35:02.552Z,100944.16
2023-03-21T02:37:09.115Z,100959.50
2023-03-21T02:39:23.502Z,100960.16
2023-03-21T02:41:38.252Z,100949.19
2023-03-21T02:43:50.970Z,100955.03
2023-03-21T02:46:00.273Z,100944.03
2023-03-21T02:48:14.544Z,100946.41
2023-03-21T02:50:23.983Z,100946.50
2023-03-21T02:52:38.641Z,100941.31
2023-03-21T02:54:48.327Z,100929.31
2023-03-21T02:56:54.039Z,100927.59
2023-03-21T02:58:56.365Z,100921.69
2023-03-21T03:00:58.712Z,100922.81
2023-03-21T03:03:09.319Z,100924.69
2023-03-21T03:05:21.403Z,100926.47
2023-03-21T03:07:29.940Z,100927.16
2023-03-21T03:09:38.826Z,100924.69
2023-03-21T03:11:45.101Z,100919.47
2023-03-21T03:13:49.774Z,100925.16
2023-03-21T03:16:05.377Z,100918.28
2023-03-21T03:18:10.834Z,100926.91
2023-03-21T03:20:19.613Z,100916.63
2023-03-21T03:22:28.342Z,100922.56
2023-03-21T03:24:38.529Z,100915.88
2023-03-21T03:26:48.111Z,100911.66
2023-03-21T03:28:55.413Z,100907.28
2023-03-21T03:31:09.561Z,100914.13
2023-03-21T03:33:17.123Z,100906.44
2023-03-21T03:35:22.810Z,100888.25
2023-03-21T03:37:28.546Z,100890.63
2023-03-21T03:39:36.300Z,100897.69
2023-03-21T03:44:09.002Z,100883.31
2023-03-21T03:46:17.162Z,100886.38
2023-03-21T03:48:26.615Z,100880.59
2023-03-21T03:50:36.768Z,100878.00
2023-03-21T03:52:55.575Z,100873.59
2023-03-21T03:54:59.330Z,100864.09
2023-03-21T03:57:01.636Z,100862.25
2023-03-21T03:59:05.765Z,100865.69
2023-03-21T04:01:08.177Z,100866.66
2023-03-21T04:03:11.244Z,100867.63
2023-03-21T04:05:13.951Z,100867.75
2023-03-21T04:07:16.683Z,100866.53
2023-03-21T04:09:23.523Z,100858.84
2023-03-21T04:11:31.046Z,100848.59
2023-03-21T04:13:34.229Z,100852.00
2023-03-21T04:15:36.829Z,100850.47
2023-03-21T04:17:39.896Z,100841.72
2023-03-21T04:19:41.902Z,100853.50
2023-03-21T04:21:44.083Z,100851.22
2023-03-21T04:23:46.053Z,100837.53
2023-03-21T04:25:56.435Z,100849.47
2023-03-21T04:27:58.656Z,100827.16
2023-03-21T04:30:00.631Z,100829.75
2023-03-21T04:32:03.630Z,100820.28
2023-03-21T04:34:10.201Z,100819.53
2023-03-21T04:36:24.883Z,100820.41
2023-03-21T04:38:30.858Z,100828.16
2023-03-21T04:40:32.964Z,100841.72
2023-03-21T04:42:35.367Z,100849.47
2023-03-21T04:44:37.742Z,100834.91
2023-03-21T04:46:40.409Z,100849.56
2023-03-21T04:48:42.362Z,100833.16
2023-03-21T04:50:45.882Z,100815.97
2023-03-21T04:52:48.879Z,100830.25
2023-03-21T04:54:51.242Z,100834.59
2023-03-21T04:56:53.576Z,100842.06
2023-03-21T04:58:55.556Z,100837.13
2023-03-21T05:00:57.593Z,100827.03
2023-03-21T05:03:00.267Z,100819.69
2023-03-21T05:05:02.578Z,100827.81
2023-03-21T05:07:04.854Z,100817.75
2023-03-21T05:09:07.199Z,100822.13
2023-03-21T05:11:09.184Z,100814.28
2023-03-21T05:13:11.195Z,100814.34
2023-03-21T05:15:13.164Z,100816.06
2023-03-21T05:17:23.330Z,100818.66
2023-03-21T05:19:31.294Z,100808.34
2023-03-21T05:21:41.821Z,100811.63
2023-03-21T05:23:44.076Z,100809.88
2023-03-21T05:25:46.470Z,100811.50
2023-03-21T05:27:54.228Z,100806.19
2023-03-21T05:29:56.314Z,100810.34
2023-03-21T05:31:59.933Z,100809.75
2023-03-21T05:34:02.180Z,100814.81
2023-03-21T05:36:04.456Z,100817.28
2023-03-21T05:38:06.460Z,100811.94
2023-03-21T05:40:10.632Z,100808.69
2023-03-21T05:42:12.855Z,100801.06
2023-03-21T05:44:14.796Z,100807.81
2023-03-21T05:46:17.793Z,100794.13
2023-03-21T05:48:19.913Z,100794.91
2023-03-21T05:50:21.844Z,100807.72
2023-03-21T05:52:24.156Z,100787.84
2023-03-21T05:54:26.100Z,100798.41
2023-03-21T05:56:28.065Z,100790.72
2023-03-21T05:58:30.732Z,100796.72
2023-03-21T06:00:32.710Z,100788.81
2023-03-21T06:02:34.722Z,100783.69
2023-03-21T06:04:36.820Z,100797.44
2023-03-21T06:06:38.793Z,100802.50
2023-03-21T06:08:40.812Z,100802.66
2023-03-21T06:10:42.886Z,100807.66
2023-03-21T06:12:44.886Z,100800.78
2023-03-21T06:14:47.190Z,100796.34
2023-03-21T06:16:49.266Z,100793.88
2023-03-21T06:18:51.221Z,100789.72
2023-03-21T06:20:54.566Z,100786.22
2023-03-21T06:22:56.512Z,100785.19
2023-03-21T06:24:58.562Z,100793.00
2023-03-21T06:27:02.811Z,100794.50
2023-03-21T06:29:06.446Z,100789.94
2023-03-21T06:31:08.613Z,100793.31
2023-03-21T06:33:10.764Z,100790.19
2023-03-21T06:35:12.801Z,100788.94
2023-03-21T06:37:14.886Z,100791.03
2023-03-21T06:39:17.091Z,100790.31
2023-03-21T06:41:19.766Z,100796.47
2023-03-21T06:43:21.695Z,100797.41
2023-03-21T06:45:25.638Z,100792.22
2023-03-21T06:47:27.620Z,100792.28
2023-03-21T06:49:29.733Z,100787.06
2023-03-21T06:51:31.800Z,100784.53
2023-03-21T06:53:35.722Z,100790.03
2023-03-21T06:55:38.414Z,100787.47
2023-03-21T06:57:40.965Z,100768.69
2023-03-21T06:59:42.960Z,100766.94
2023-03-21T07:01:44.992Z,100774.38
2023-03-21T07:03:47.448Z,100785.59
2023-03-21T07:05:49.473Z,100773.59
2023-03-21T07:07:51.419Z,100768.34
2023-03-21T07:09:53.336Z,100772.75
2023-03-21T07:11:55.428Z,100768.50
2023-03-21T07:13:57.725Z,100777.19
2023-03-21T07:16:00.682Z,100766.94
2023-03-21T07:18:02.761Z,100766.19
2023-03-21T07:20:08.475Z,100760.19
2023-03-21T07:22:10.543Z,100756.94
2023-03-21T07:24:12.609Z,100761.88
2023-03-21T07:26:16.246Z,100763.53
2023-03-21T07:28:19.011Z,100762.88
2023-03-21T07:30:21.738Z,100773.97
2023-03-21T07:32:23.761Z,100768.84
2023-03-21T07:34:27.577Z,100778.94
2023-03-21T07:36:29.610Z,100768.84
2023-03-21T07:38:31.933Z,100763.84
2023-03-21T07:40:34.143Z,100768.22
2023-03-21T07:42:37.435Z,100785.81
2023-03-21T07:44:39.577Z,100774.94
2023-03-21T07:46:41.732Z,100765.34
2023-03-21T07:48:43.873Z,100785.00
2023-03-21T07:50:46.832Z,100774.09
2023-03-21T07:52:49.113Z,100776.59
2023-03-21T07:54:51.166Z,100769.97
2023-03-21T07:56:53.234Z,100778.38
2023-03-21T07:58:55.378Z,100780.75
2023-03-21T08:00:59.095Z,100771.34
2023-03-21T08:03:01.305Z,100779.19
2023-03-21T08:05:04.299Z,100782.75
2023-03-21T08:07:06.593Z,100777.50
2023-03-21T08:09:09.159Z,100774.25
2023-03-21T08:11:12.197Z,100774.03
2023-03-21T08:13:14.854Z,100771.44
2023-03-21T08:15:17.317Z,100773.16
2023-03-21T08:17:19.453Z,100767.19
2023-03-21T08:19:22.015Z,100766.16
2023-03-21T08:21:24.329Z,100759.66
2023-03-21T08:23:27.351Z,100763.19
2023-03-21T08:25:29.738Z,100759.06
2023-03-21T08:27:33.370Z,100754.59
2023-03-21T08:29:40.571Z,100768.56
2023-03-21T08:31:42.904Z,100772.78
2023-03-21T08:33:45.422Z,100772.19
2023-03-21T08:35:47.821Z,100776.78
2023-03-21T08:37:50.089Z,100776.75
2023-03-21T08:39:52.266Z,100787.00
2023-03-21T08:41:54.944Z,100774.13
2023-03-21T08:43:57.223Z,100761.34
2023-03-21T08:45:59.848Z,100775.13
2023-03-21T08:48:02.072Z,100776.22
2023-03-21T08:50:07.092Z,100762.41
2023-03-21T08:52:09.582Z,100760.78
2023-03-21T08:54:17.956Z,100758.97
2023-03-21T08:56:21.342Z,100754.03
2023-03-21T08:58:23.622Z,100758.06
2023-03-21T09:00:25.911Z,100745.59
2023-03-21T09:02:28.395Z,100742.13
2023-03-21T09:04:31.468Z,100742.25
2023-03-21T09:06:33.975Z,100740.63
2023-03-21T09:08:36.141Z,100737.72
2023-03-21T09:10:38.702Z,100733.03
2023-03-21T09:12:41.455Z,100733.06
2023-03-21T09:14:43.577Z,100728.97
2023-03-21T09:16:46.440Z,100740.31
2023-03-21T09:18:50.846Z,100741.25
2023-03-21T09:20:53.518Z,100735.06
2023-03-21T09:23:03.965Z,100737.53
2023-03-21T09:25:08.616Z,100737.78
2023-03-21T09:27:10.696Z,100728.47
2023-03-21T09:29:29.030Z,100730.38
2023-03-21T09:31:37.624Z,100726.88
2023-03-21T09:33:53.706Z,100726.25
2023-03-21T09:36:02.869Z,100722.09
2023-03-21T09:38:08.629Z,100733.22
2023-03-21T09:40:21.986Z,100728.00
2023-03-21T09:42:35.645Z,100739.13
2023-03-21T09:44:46.552Z,100729.03
2023-03-21T09:46:53.408Z,100724.66
2023-03-21T09:48:59.033Z,100719.78
2023-03-21T09:51:03.108Z,100717.09
2023-03-21T09:53:12.725Z,100722.16
2023-03-21T09:55:20.328Z,100708.34
2023-03-21T09:57:32.422Z,100719.78
2023-03-21T09:59:50.683Z,100718.06
2023-03-21T10:01:53.234Z,100726.78
2023-03-21T10:03:57.213Z,100736.03
2023-03-21T10:06:01.573Z,100730.44
2023-03-21T10:08:10.460Z,100723.91
2023-03-21T10:10:17.332Z,100730.16
2023-03-21T10:12:22.667Z,100738.75
2023-03-21T10:14:31.818Z,100732.75
2023-03-21T10:16:42.823Z,100744.06
2023-03-21T10:18:49.798Z,100748.25
2023-03-21T10:21:07.150Z,100741.94
2023-03-21T10:23:18.294Z,100740.47
2023-03-21T10:25:35.159Z,100743.63
2023-03-21T10:27:40.533Z,100739.31
2023-03-21T10:29:48.077Z,100732.56
2023-03-21T10:31:55.601Z,100737.75
2023-03-21T10:34:05.511Z,100721.56
2023-03-21T10:36:21.337Z,100723.94
2023-03-21T10:38:28.839Z,100725.00
2023-03-21T10:40:34.998Z,100709.53
2023-03-21T10:42:45.090Z,100699.13
2023-03-21T10:45:00.394Z,100700.00
2023-03-21T10:47:10.006Z,100709.53
2023-03-21T10:49:18.283Z,100705.91
2023-03-21T10:51:27.911Z,100702.47
2023-03-21T10:53:43.036Z,100696.16
2023-03-21T10:55:53.629Z,100697.94
2023-03-21T10:58:02.677Z,100696.72
2023-03-21T11:00:19.930Z,100690.34
2023-03-21T11:02:31.671Z,100678.41
2023-03-21T11:04:39.912Z,100679.38
2023-03-21T11:06:56.485Z,100684.66
2023-03-21T11:09:15.385Z,100675.38
2023-03-21T11:11:28.969Z,100667.72
2023-03-21T11:13:37.744Z,100665.25
2023-03-21T11:15:49.314Z,100667.09
2023-03-21T11:17:55.646Z,100655.16
2023-03-21T11:20:08.090Z,100650.13
2023-03-21T11:22:15.332Z,100653.69
2023-03-21T11:24:22.514Z,100659.69
2023-03-21T11:26:31.796Z,100657.25
2023-03-21T11:28:38.678Z,100642.72
2023-03-21T11:30:53.975Z,100641.78
2023-03-21T11:32:58.430Z,100646.13
2023-03-21T11:35:04.187Z,100648.72
2023-03-21T11:37:07.323Z,100631.53
2023-03-21T11:39:14.007Z,100655.50
2023-03-21T11:41:22.365Z,100630.69
2023-03-21T11:43:32.055Z,100650.34
2023-03-21T11:45:36.139Z,100642.72
2023-03-21T11:47:39.990Z,100659.84
2023-03-21T11:49:42.141Z,100644.47
2023-03-21T11:51:54.296Z,100653.13
2023-03-21T11:54:00.837Z,100648.81
2023-03-21T11:56:06.702Z,100641.19
2023-03-21T11:58:17.990Z,100644.63
2023-03-21T12:00:26.234Z,100660.13
2023-03-21T12:02:34.716Z,100658.53
2023-03-21T12:04:41.706Z,100659.38
2023-03-21T12:06:55.422Z,100676.56
2023-03-21T12:09:02.173Z,100649.88
2023-03-21T12:11:16.464Z,100653.34
2023-03-21T12:13:30.633Z,100673.03
2023-03-21T12:15:44.106Z,100647.88
2023-03-21T12:17:58.715Z,100652.16
2023-03-21T12:20:06.074Z,100645.41
2023-03-21T12:22:11.667Z,100652.09
2023-03-21T12:24:21.020Z,100652.00
2023-03-21T12:26:29.613Z,100658.13
2023-03-21T12:28:43.605Z,100662.22
2023-03-21T12:30:56.938Z,100655.53
2023-03-21T12:33:03.307Z,100646.13
2023-03-21T12:35:11.644Z,100645.19
2023-03-21T12:37:17.401Z,100645.22
2023-03-21T12:39:28.463Z,100633.25
2023-03-21T12:41:37.874Z,100631.59
2023-03-21T12:43:46.182Z,100627.25
2023-03-21T12:45:53.711Z,100634.22
2023-03-21T12:48:04.239Z,100631.75
2023-03-21T12:50:15.761Z,100639.44
2023-03-21T12:52:24.400Z,100643.75
2023-03-21T12:54:30.018Z,100625.78
2023-03-21T12:56:41.947Z,100622.41
2023-03-21T12:58:51.140Z,100625.88
2023-03-21T13:00:58.860Z,100616.47
2023-03-21T13:03:05.548Z,100636.34
2023-03-21T13:05:11.924Z,100616.53
2023-03-21T13:07:20.261Z,100606.13
2023-03-21T13:09:37.698Z,100645.84
2023-03-21T13:11:41.061Z,100625.22
2023-03-21T13:13:48.122Z,100614.81
2023-03-21T13:15:57.835Z,100638.88
2023-03-21T13:18:03.626Z,100606.19
2023-03-21T13:20:11.914Z,100603.47
2023-03-21T13:22:17.073Z,100607.88
2023-03-21T13:24:22.809Z,100623.31
2023-03-21T13:26:34.158Z,100595.72
2023-03-21T13:28:37.448Z,100606.19
2023-03-21T13:30:39.814Z,100582.97
2023-03-21T13:32:45.034Z,100603.66
2023-03-21T13:34:55.547Z,100591.53
2023-03-21T13:36:58.247Z,100600.16
2023-03-21T13:39:04.515Z,100591.56
2023-03-21T13:41:12.988Z,100589.94
2023-03-21T13:43:26.989Z,100590.84
2023-03-21T13:45:35.045Z,100596.03
2023-03-21T13:47:43.456Z,100598.66
2023-03-21T13:50:08.507Z,100600.31
2023-03-21T13:52:12.248Z,100597.69
2023-03-21T13:54:15.134Z,100590.84
2023-03-21T13:56:18.117Z,100595.28
2023-03-21T13:58:26.780Z,100577.22
2023-03-21T14:00:31.253Z,100561.72
2023-03-21T14:02:34.786Z,100574.69
2023-03-21T14:04:42.571Z,100568.66
2023-03-21T14:06:49.146Z,100576.41
2023-03-21T14:08:51.550Z,100567.72
2023-03-21T14:10:59.946Z,100566.91
2023-03-21T14:13:05.241Z,100564.22
2023-03-21T14:15:16.760Z,100557.28
2023-03-21T14:17:25.474Z,100563.38
2023-03-21T14:19:31.989Z,100576.19
2023-03-21T14:21:36.233Z,100578.91
2023-03-21T14:23:39.320Z,100577.91
2023-03-21T14:25:47.569Z,100575.31
2023-03-21T14:27:54.918Z,100577.13
2023-03-21T14:29:58.860Z,100579.69
2023-03-21T14:32:02.523Z,100579.69
2023-03-21T14:34:04.968Z,100571.09
2023-03-21T14:36:11.995Z,100574.47
2023-03-21T14:38:20.992Z,100580.50
2023-03-21T14:40:26.990Z,100570.19
2023-03-21T14:42:35.124Z,100572.69
2023-03-21T14:44:55.016Z,100567.41
2023-03-21T14:47:06.049Z,100568.31
2023-03-21T14:49:12.279Z,100583.78
2023-03-21T14:51:14.644Z,100586.44
2023-03-21T14:53:22.044Z,100584.72
2023-03-21T14:55:24.821Z,100584.72
2023-03-21T14:57:31.121Z,100566.66
2023-03-21T14:59:36.550Z,100586.47
2023-03-21T15:01:40.132Z,100579.56
2023-03-21T15:03:46.669Z,100576.13
2023-03-21T15:05:48.986Z,100583.94
2023-03-21T15:07:56.879Z,100586.53
2023-03-21T15:10:03.992Z,100572.75
2023-03-21T15:12:09.484Z,100588.31
2023-03-21T15:14:14.619Z,100588.34
2023-03-21T15:16:26.633Z,100584.91
2023-03-21T15:18:33.511Z,100584.06
2023-03-21T15:20:38.737Z,100578.00
2023-03-21T15:22:45.499Z,100598.69
2023-03-21T15:24:54.071Z,100584.03
2023-03-21T15:27:01.637Z,100594.38
2023-03-21T15:29:06.593Z,100577.09
2023-03-21T15:31:18.867Z,100577.13
2023-03-21T15:33:24.064Z,100563.41
2023-03-21T15:35:32.479Z,100556.53
2023-03-21T15:37:37.076Z,100562.59
2023-03-21T15:39:55.085Z,100560.88
2023-03-21T15:42:02.102Z,100557.44
2023-03-21T15:44:08.932Z,100537.59
2023-03-21T15:46:16.048Z,100524.63
2023-03-21T15:48:25.396Z,100544.53
2023-03-21T15:50:29.585Z,100530.69
2023-03-21T15:52:32.830Z,100517.72
2023-03-21T15:54:42.562Z,100518.59
2023-03-21T15:56:46.220Z,100536.72
2023-03-21T15:58:52.580Z,100511.66
2023-03-21T16:00:57.760Z,100516.00
2023-03-21T16:03:08.723Z,100525.50
2023-03-21T16:05:17.226Z,100520.31
2023-03-21T16:07:21.420Z,100517.72
2023-03-21T16:09:24.745Z,100509.91
2023-03-21T16:11:29.432Z,100516.78
2023-03-21T16:13:31.560Z,100529.75
2023-03-21T16:15:53.204Z,100510.75
2023-03-21T16:18:05.346Z,100510.81
2023-03-21T16:20:21.125Z,100518.47
2023-03-21T16:22:30.693Z,100519.38
2023-03-21T16:24:39.468Z,100519.38
2023-03-21T16:26:53.234Z,100526.22
2023-03-21T16:29:05.877Z,100527.97
2023-03-21T16:31:24.684Z,100519.38
2023-03-21T16:33:33.826Z,100522.78
2023-03-21T16:35:51.215Z,100520.22
2023-03-21T16:38:10.533Z,100512.47
2023-03-21T16:40:23.101Z,100517.63
2023-03-21T16:42:40.668Z,100521.06
2023-03-21T16:44:52.842Z,100530.56
2023-03-21T16:49:24.208Z,100516.75
2023-03-21T16:52:11.479Z,100513.31
2023-03-21T16:54:15.326Z,100521.06
2023-03-21T16:56:39.545Z,100549.41
2023-03-21T16:58:47.777Z,100526.16
2023-03-21T17:00:53.032Z,100532.16
2023-03-21T17:03:03.293Z,100515.78
2023-03-21T17:05:12.613Z,100525.28
2023-03-21T17:07:27.062Z,100517.56
2023-03-21T17:09:34.386Z,100514.97
2023-03-21T17:12:00.821Z,100532.22
2023-03-21T17:14:11.629Z,100527.91
2023-03-21T17:16:36.508Z,100522.66
2023-03-21T17:19:06.903Z,100527.84
2023-03-21T17:21:17.835Z,100526.09
2023-03-21T17:23:22.730Z,100522.59
2023-03-21T17:25:26.892Z,100526.91
2023-03-21T17:27:35.964Z,100531.25
2023-03-21T17:29:46.512Z,100525.16
2023-03-21T17:32:04.467Z,100526.94
2023-03-21T17:34:12.721Z,100526.09
2023-03-21T17:36:22.375Z,100526.84
2023-03-21T17:38:28.143Z,100523.34
2023-03-21T17:40:37.335Z,100527.50
2023-03-21T17:42:52.904Z,100519.72
2023-03-21T17:45:21.325Z,100517.06
2023-03-21T17:47:36.833Z,100509.38
2023-03-21T17:49:55.466Z,100503.34
2023-03-21T17:52:07.133Z,100513.69
2023-03-21T17:54:39.632Z,100514.50
2023-03-21T17:56:51.617Z,100508.28
2023-03-21T17:59:17.976Z,100509.97
2023-03-21T18:02:27.647Z,100506.72
2023-03-21T18:04:35.489Z,100505.78
2023-03-21T18:07:01.555Z,100508.31
2023-03-21T18:09:18.469Z,100524.66
2023-03-21T18:11:26.922Z,100519.53
2023-03-21T18:13:50.580Z,100518.56
2023-03-21T18:16:19.375Z,100517.78
2023-03-21T18:18:56.503Z,100537.50
2023-03-21T18:21:20.334Z,100536.44
2023-03-21T18:23:26.436Z,100526.06
2023-03-21T18:25:42.472Z,100533.84
2023-03-21T18:28:13.144Z,100536.34
2023-03-21T18:30:45.187Z,100536.91
2023-03-21T18:32:49.832Z,100530.84
2023-03-21T18:34:58.951Z,100533.47
2023-03-21T18:39:29.351Z,100532.50
2023-03-21T18:41:50.045Z,100530.75
2023-03-21T18:44:09.208Z,100527.16
2023-03-21T18:46:25.931Z,100540.22
2023-03-21T18:48:33.807Z,100531.59
2023-03-21T18:50:43.317Z,100542.59
2023-03-21T18:52:48.959Z,100549.41
2023-03-21T18:54:55.420Z,100540.47
2023-03-21T18:59:25.569Z,100540.50
2023-03-21T19:01:31.392Z,100551.66
2023-03-21T19:03:37.585Z,100548.25
2023-03-21T19:05:50.812Z,100541.22
2023-03-21T19:07:59.243Z,100555.75
2023-03-21T19:10:23.970Z,100531.03
2023-03-21T19:12:29.897Z,100538.09
2023-03-21T19:14:36.179Z,100529.97
2023-03-21T19:17:13.870Z,100535.34
2023-03-21T19:19:11.830Z,100531.03
2023-03-21T19:21:21.755Z,100530.94
2023-03-21T19:23:56.334Z,100528.56
2023-03-21T19:26:00.412Z,100529.38
2023-03-21T19:28:11.911Z,100532.53
2023-03-21T19:30:25.098Z,100532.88
2023-03-21T19:32:36.824Z,100536.25
2023-03-21T19:34:43.526Z,100536.34
2023-03-21T19:36:56.156Z,100539.69
2023-03-21T19:39:01.398Z,100535.34
2023-03-21T19:41:12.121Z,100538.53
2023-03-21T19:43:32.405Z,100531.88
2023-03-21T19:45:43.507Z,100534.38
2023-03-21T19:47:52.695Z,100530.88
2023-03-21T19:52:24.611Z,100527.47
2023-03-21T19:54:35.786Z,100527.44
2023-03-21T19:56:48.245Z,100523.19
2023-03-21T19:58:50.924Z,100518.03
2023-03-21T20:00:53.810Z,100516.44
2023-03-21T20:03:00.336Z,100507.03
2023-03-21T20:05:10.962Z,100513.75
2023-03-21T20:07:18.573Z,100509.69
2023-03-21T20:09:51.143Z,100509.56
2023-03-21T20:11:53.486Z,100507.56
2023-03-21T20:14:03.951Z,100507.50
2023-03-21T20:16:14.066Z,100509.28
2023-03-21T20:18:16.271Z,100524.53
2023-03-21T20:20:19.495Z,100517.78
2023-03-21T20:22:31.168Z,100509.94
2023-03-21T20:24:44.564Z,100505.56
2023-03-21T20:26:47.243Z,100510.72
2023-03-21T20:29:00.102Z,100503.03
2023-03-21T20:31:06.700Z,100497.06
2023-03-21T20:33:09.156Z,100498.84
2023-03-21T20:35:20.651Z,100503.75
2023-03-21T20:37:23.333Z,100504.84
2023-03-21T20:39:27.979Z,100502.91
2023-03-21T20:41:30.895Z,100491.72
2023-03-21T20:44:24.419Z,100490.94
2023-03-21T20:46:00.783Z,100490.25
2023-03-21T20:48:03.394Z,100491.03
2023-03-21T20:50:08.097Z,100476.50
2023-03-21T20:54:32.393Z,100473.19
2023-03-21T20:56:34.943Z,100480.97
2023-03-21T20:59:08.298Z,100455.19
2023-03-21T21:01:04.929Z,100474.00
2023-03-21T21:03:07.060Z,100468.84
2023-03-21T21:05:25.311Z,100467.19
2023-03-21T21:07:29.952Z,100470.72
2023-03-21T21:09:32.801Z,100459.75
2023-03-21T21:12:06.128Z,100461.34
2023-03-21T21:13:57.056Z,100472.41
2023-03-21T21:15:59.361Z,100460.47
2023-03-21T21:18:07.097Z,100459.63
2023-03-21T21:20:16.873Z,100449.19
2023-03-21T21:22:19.329Z,100444.88
2023-03-21T21:24:21.399Z,100445.66
2023-03-21T21:26:23.563Z,100449.88
2023-03-21T21:28:29.004Z,100440.38
2023-03-21T21:30:32.827Z,100434.59
2023-03-21T21:32:35.248Z,100427.81
2023-03-21T21:34:37.622Z,100435.53
2023-03-21T21:36:40.029Z,100427.56
2023-03-21T21:38:42.223Z,100427.50
2023-03-21T21:40:46.315Z,100425.84
2023-03-21T21:42:48.514Z,100418.88
2023-03-21T21:44:50.659Z,100411.25
2023-03-21T21:46:52.831Z,100406.94
2023-03-21T21:48:54.904Z,100407.13
2023-03-21T21:50:57.039Z,100408.13
2023-03-21T21:53:03.962Z,100405.53
2023-03-21T21:55:08.447Z,100405.25
2023-03-21T21:57:11.209Z,100398.50
2023-03-21T21:59:16.301Z,100393.38
2023-03-21T22:01:20.882Z,100400.22
2023-03-21T22:03:23.491Z,100389.16
2023-03-21T22:05:26.938Z,100391.56
2023-03-21T22:07:29.175Z,100382.97
2023-03-21T22:09:31.404Z,100378.53
2023-03-21T22:11:33.886Z,100387.00
2023-03-21T22:13:36.882Z,100374.09
2023-03-21T22:15:38.948Z,100373.47
2023-03-21T22:17:41.957Z,100372.66
2023-03-21T22:19:52.703Z,100375.97
2023-03-21T22:22:01.141Z,100363.09
2023-03-21T22:24:03.198Z,100351.91
2023-03-21T22:26:05.796Z,100368.31
2023-03-21T22:28:07.895Z,100358.88
2023-03-21T22:30:13.957Z,100363.31
2023-03-21T22:32:16.044Z,100348.72
2023-03-21T22:34:18.108Z,100343.41
2023-03-21T22:36:20.452Z,100345.03
2023-03-21T22:38:24.413Z,100346.75
2023-03-21T22:40:26.529Z,100336.50
2023-03-21T22:42:28.807Z,100350.94
2023-03-21T22:44:35.344Z,100332.88
2023-03-21T22:46:37.411Z,100327.72
2023-03-21T22:48:39.580Z,100332.91
2023-03-21T22:50:42.656Z,100327.84
2023-03-21T22:52:44.656Z,100321.03
2023-03-21T22:54:47.709Z,100321.09
2023-03-21T22:56:49.717Z,100318.34
2023-03-21T22:58:51.657Z,100326.84
2023-03-21T23:00:53.780Z,100325.16
2023-03-21T23:02:56.108Z,100330.22
2023-03-21T23:04:58.234Z,100351.75
2023-03-21T23:07:00.618Z,100308.91
2023-03-21T23:09:03.077Z,100307.19
2023-03-21T23:11:07.704Z,100321.66
2023-03-21T23:13:09.888Z,100303.81
2023-03-21T23:15:12.135Z,100299.66
2023-03-21T23:17:14.191Z,100306.91
2023-03-21T23:19:16.209Z,100277.72
2023-03-21T23:21:18.269Z,100275.25
2023-03-21T23:23:20.273Z,100283.00
2023-03-21T23:25:22.388Z,100277.19
2023-03-21T23:27:24.517Z,100281.47
2023-03-21T23:29:26.707Z,100295.22
2023-03-21T23:31:29.211Z,100277.19
2023-03-21T23:33:32.043Z,100277.84
2023-03-21T23:35:38.424Z,100280.44
2023-03-21T23:37:42.605Z,100283.88
2023-03-21T23:39:45.411Z,100287.31
2023-03-21T23:41:47.437Z,100272.78
2023-03-21T23:43:49.880Z,100293.31
2023-03-21T23:45:52.224Z,100263.41
2023-03-21T23:47:54.293Z,100277.91
2023-03-21T23:49:56.299Z,100264.31
2023-03-21T23:51:58.418Z,100264.34
2023-03-21T23:54:00.641Z,100258.31
2023-03-21T23:56:02.740Z,100250.50
2023-03-21T23:58:05.969Z,100249.81
